Time;durP1;ratioP1;P1;durP2;ratioP2;P2;SDS_P1;SDS_P2;PMS_P1;PMS_P2;Temp;Humidity;BMP_temperature;BMP_pressure;BME280_temperature;BME280_humidity;BME280_pressure;Samples;Min_cycle;Max_cycle;Signal;HPM_P1;HPM_P2
2023/08/28 00:02:03;;;;;;;;;;;;;;;;;;5069810;28;19977;-61
2023/08/28 00:04:29;;;;;;;;;;;;;;;;;;5074759;28;19947;-61
2023/08/28 00:06:55;;;;;;;;;;;;;;;;;;5065647;28;19912;-61
2023/08/28 00:09:21;;;;;;;;;;;;;;;;;;5064604;28;19971;-61
2023/08/28 00:11:47;;;;;;;;;;;;;;;;;;5071672;28;19919;-61
2023/08/28 00:14:13;;;;;;;;;;;;;;;;;;5063255;28;19916;-61
2023/08/28 00:16:39;;;;;;;;;;;;;;;;;;5073648;28;19916;-61
2023/08/28 00:19:05;;;;;;;;;;;;;;;;;;5074563;28;19919;-61
2023/08/28 00:21:32;;;;;;;;;;;;;;;;;;5071885;28;20388;-61
2023/08/28 00:23:58;;;;;;;;;;;;;;;;;;5072937;28;19935;-61
2023/08/28 00:26:24;;;;;;;;;;;;;;;;;;5071457;28;19963;-61
2023/08/28 00:28:50;;;;;;;;;;;;;;;;;;5062304;28;19919;-61
2023/08/28 00:31:16;;;;;;;;;;;;;;;;;;5066877;28;19948;-61
2023/08/28 00:33:42;;;;;;;;;;;;;;;;;;5073365;28;19978;-61
2023/08/28 00:36:08;;;;;;;;;;;;;;;;;;5059219;28;20007;-61
2023/08/28 00:38:33;;;;;;;;;;;;;;;;;;5058518;28;19913;-61
2023/08/28 00:40:59;;;;;;;;;;;;;;;;;;5072600;28;19947;-59
2023/08/28 00:43:25;;;;;;;;;;;;;;;;;;5062306;28;19912;-60
2023/08/28 00:45:51;;;;;;;;;;;;;;;;;;5068615;28;19958;-60
2023/08/28 00:48:17;;;;;;;;;;;;;;;;;;5071684;28;20383;-60
2023/08/28 00:50:43;;;;;;;;;;;;;;;;;;5074032;28;20058;-65
2023/08/28 00:53:11;;;;;;;;;;;;;;;;;;5068733;28;20277;-66
2023/08/28 00:55:37;;;;;;;;;;;;;;;;;;5071425;28;19919;-65
2023/08/28 00:58:03;;;;;;;;;;;;;;;;;;5072045;28;20291;-65
2023/08/28 01:00:29;;;;;;;;;;;;;;;;;;5072532;28;19926;-65
2023/08/28 01:02:55;;;;;;;;;;;;;;;;;;5069326;28;19955;-66
2023/08/28 01:05:21;;;;;;;;;;;;;;;;;;5063292;28;19913;-66
2023/08/28 01:07:47;;;;;;;;;;;;;;;;;;5070402;28;20007;-66
2023/08/28 01:10:13;;;;;;;;;;;;;;;;;;5069281;28;19912;-66
2023/08/28 01:12:39;;;;;;;;;;;;;;;;;;5070257;28;19951;-66
2023/08/28 01:15:05;;;;;;;;;;;;;;;;;;5074367;28;20442;-66
2023/08/28 01:17:31;;;;;;;;;;;;;;;;;;5066806;28;20008;-65
2023/08/28 01:19:57;;;;;;;;;;;;;;;;;;5071164;28;19924;-66
2023/08/28 01:22:23;;;;;;;;;;;;;;;;;;5068264;28;19923;-66
2023/08/28 01:24:49;;;;;;;;;;;;;;;;;;5066025;28;19916;-66
2023/08/28 01:27:16;;;;;;;;;;;;;;;;;;5072276;28;19912;-64
2023/08/28 01:29:42;;;;;;;;;;;;;;;;;;5065015;28;20014;-67
2023/08/28 01:32:07;;;;;;;;;;;;;;;;;;5073857;28;20321;-68
2023/08/28 01:34:33;;;;;;;;;;;;;;;;;;5066119;28;19951;-65
2023/08/28 01:36:59;;;;;;;;;;;;;;;;;;5070520;28;20006;-65
2023/08/28 01:39:25;;;;;;;;;;;;;;;;;;5057862;28;20473;-65
2023/08/28 01:41:51;;;;;;;;;;;;;;;;;;5072439;28;19908;-64
2023/08/28 01:44:17;;;;;;;;;;;;;;;;;;5069121;28;20284;-67
2023/08/28 01:46:43;;;;;;;;;;;;;;;;;;5072010;28;20020;-66
2023/08/28 01:49:09;;;;;;;;;;;;;;;;;;5073039;28;19920;-67
2023/08/28 01:51:35;;;;;;;;;;;;;;;;;;5072485;28;20395;-65
2023/08/28 01:54:00;;;;;;;;;;;;;;;;;;5070092;28;19942;-66
2023/08/28 01:56:26;;;;;;;;;;;;;;;;;;5069452;28;20000;-66
2023/08/28 01:58:52;;;;;;;;;;;;;;;;;;5071860;28;19955;-66
2023/08/28 02:01:18;;;;;;;;;;;;;;;;;;5071195;28;20593;-66
2023/08/28 02:03:44;;;;;;;;;;;;;;;;;;5070169;28;19966;-67
2023/08/28 02:06:10;;;;;;;;;;;;;;;;;;5068141;28;20392;-66
2023/08/28 02:08:36;;;;;;;;;;;;;;;;;;5063574;28;20675;-66
2023/08/28 02:11:02;;;;;;;;;;;;;;;;;;5068593;28;19912;-59
2023/08/28 02:13:28;;;;;;;;;;;;;;;;;;5061854;28;20343;-57
2023/08/28 02:15:54;;;;;;;;;;;;;;;;;;5059332;28;20390;-55
2023/08/28 02:18:20;;;;;;;;;;;;;;;;;;5066700;28;19974;-57
2023/08/28 02:20:46;;;;;;;;;;;;;;;;;;5066090;28;19931;-58
2023/08/28 02:23:11;;;;;;;;;;;;;;;;;;5059408;28;19913;-57
2023/08/28 02:25:37;;;;;;;;;;;;;;;;;;5052337;28;23484;-58
2023/08/28 02:28:03;;;;;;;;;;;;;;;;;;5068392;28;20011;-57
2023/08/28 02:30:29;;;;;;;;;;;;;;;;;;5071974;28;19916;-57
2023/08/28 02:32:55;;;;;;;;;;;;;;;;;;5071958;28;20010;-58
2023/08/28 02:35:21;;;;;;;;;;;;;;;;;;5066841;28;20753;-58
2023/08/28 02:37:47;;;;;;;;;;;;;;;;;;5072311;28;20414;-57
2023/08/28 02:40:13;;;;;;;;;;;;;;;;;;5071512;28;19912;-59
2023/08/28 02:42:39;;;;;;;;;;;;;;;;;;5064224;28;19966;-57
2023/08/28 02:45:05;;;;;;;;;;;;;;;;;;5070111;28;20430;-57
2023/08/28 02:47:31;;;;;;;;;;;;;;;;;;5069108;28;19955;-58
2023/08/28 02:49:57;;;;;;;;;;;;;;;;;;5067726;28;19912;-57
2023/08/28 02:52:23;;;;;;;;;;;;;;;;;;5070029;28;19961;-56
2023/08/28 02:54:49;;;;;;;;;;;;;;;;;;5055809;28;19923;-58
2023/08/28 02:57:15;;;;;;;;;;;;;;;;;;5064325;28;20368;-57
2023/08/28 02:59:41;;;;;;;;;;;;;;;;;;5066267;28;20012;-57
2023/08/28 03:02:07;;;;;;;;;;;;;;;;;;5071776;28;20287;-59
2023/08/28 03:04:35;;;;;;;;;;;;;;;;;;5064134;28;19913;-58
2023/08/28 03:07:01;;;;;;;;;;;;;;;;;;5071580;28;19913;-58
2023/08/28 03:09:29;;;;;;;;;;;;;;;;;;5070462;28;19916;-57
2023/08/28 03:11:55;;;;;;;;;;;;;;;;;;5069777;28;19912;-57
2023/08/28 03:14:20;;;;;;;;;;;;;;;;;;5061405;28;19963;-57
2023/08/28 03:16:46;;;;;;;;;;;;;;;;;;5068547;28;19934;-58
2023/08/28 03:19:12;;;;;;;;;;;;;;;;;;5072483;28;19909;-57
2023/08/28 03:21:40;;;;;;;;;;;;;;;;;;5070099;28;19916;-58
2023/08/28 03:24:06;;;;;;;;;;;;;;;;;;5054627;28;20046;-57
2023/08/28 03:26:32;;;;;;;;;;;;;;;;;;5073915;28;19948;-58
2023/08/28 03:28:57;;;;;;;;;;;;;;;;;;5058909;28;19927;-57
2023/08/28 03:31:23;;;;;;;;;;;;;;;;;;5068962;28;19999;-58
2023/08/28 03:33:49;;;;;;;;;;;;;;;;;;5061640;28;19964;-57
2023/08/28 03:36:15;;;;;;;;;;;;;;;;;;5073012;28;20011;-57
2023/08/28 03:38:41;;;;;;;;;;;;;;;;;;5075322;28;19919;-59
2023/08/28 03:41:07;;;;;;;;;;;;;;;;;;5074127;28;19990;-57
2023/08/28 03:43:33;;;;;;;;;;;;;;;;;;5072333;28;20007;-57
2023/08/28 03:45:59;;;;;;;;;;;;;;;;;;5073992;28;20296;-60
2023/08/28 03:48:25;;;;;;;;;;;;;;;;;;5071428;28;19912;-57
2023/08/28 03:50:51;;;;;;;;;;;;;;;;;;5071786;28;19920;-58
2023/08/28 03:53:17;;;;;;;;;;;;;;;;;;5072952;28;19995;-58
2023/08/28 03:55:42;;;;;;;;;;;;;;;;;;5075900;28;20387;-57
2023/08/28 03:58:08;;;;;;;;;;;;;;;;;;5067515;28;19966;-58
2023/08/28 04:00:34;;;;;;;;;;;;;;;;;;5073207;28;19913;-58
2023/08/28 04:03:00;;;;;;;;;;;;;;;;;;5065835;28;20378;-55
2023/08/28 04:05:29;;;;;;;;;;;;;;;;;;5074178;28;19912;-59
2023/08/28 04:07:55;;;;;;;;;;;;;;;;;;5063765;28;19913;-58
2023/08/28 04:10:21;;;;;;;;;;;;;;;;;;5072753;28;19913;-57
2023/08/28 04:12:46;;;;;;;;;;;;;;;;;;5070596;28;20364;-56
2023/08/28 04:15:12;;;;;;;;;;;;;;;;;;5073449;28;19960;-59
2023/08/28 04:17:38;;;;;;;;;;;;;;;;;;5074734;28;20020;-58
2023/08/28 04:20:04;;;;;;;;;;;;;;;;;;5073091;28;20043;-57
2023/08/28 04:22:30;;;;;;;;;;;;;;;;;;5065508;28;19919;-60
2023/08/28 04:24:56;;;;;;;;;;;;;;;;;;5062207;28;19916;-57
2023/08/28 04:27:22;;;;;;;;;;;;;;;;;;5074304;28;20279;-55
2023/08/28 04:29:48;;;;;;;;;;;;;;;;;;5074028;28;19999;-61
2023/08/28 04:32:14;;;;;;;;;;;;;;;;;;5060619;28;19919;-60
2023/08/28 04:34:40;;;;;;;;;;;;;;;;;;5071007;28;20303;-60
2023/08/28 04:37:06;;;;;;;;;;;;;;;;;;5062946;28;19916;-60
2023/08/28 04:39:31;;;;;;;;;;;;;;;;;;5071671;28;20439;-60
2023/08/28 04:41:57;;;;;;;;;;;;;;;;;;5070826;28;19913;-61
2023/08/28 04:44:23;;;;;;;;;;;;;;;;;;5059501;28;20299;-60
2023/08/28 04:46:49;;;;;;;;;;;;;;;;;;5064007;28;19952;-61
2023/08/28 04:49:15;;;;;;;;;;;;;;;;;;5063316;28;19920;-61
2023/08/28 04:51:41;;;;;;;;;;;;;;;;;;5063553;28;20376;-61
2023/08/28 04:54:07;;;;;;;;;;;;;;;;;;5060289;28;20082;-61
2023/08/28 04:56:33;;;;;;;;;;;;;;;;;;5061652;28;19916;-60
2023/08/28 04:58:59;;;;;;;;;;;;;;;;;;5065224;28;20504;-60
2023/08/28 05:01:25;;;;;;;;;;;;;;;;;;5070610;28;19943;-61
2023/08/28 05:03:51;;;;;;;;;;;;;;;;;;5070354;28;20372;-60
2023/08/28 05:06:17;;;;;;;;;;;;;;;;;;5068767;28;19999;-60
2023/08/28 05:08:43;;;;;;;;;;;;;;;;;;5070767;28;19962;-61
2023/08/28 05:11:09;;;;;;;;;;;;;;;;;;5067785;28;19920;-60
2023/08/28 05:13:35;;;;;;;;;;;;;;;;;;5061915;28;19917;-61
2023/08/28 05:16:01;;;;;;;;;;;;;;;;;;5068470;28;20386;-61
2023/08/28 05:18:27;;;;;;;;;;;;;;;;;;5070148;28;19999;-61
2023/08/28 05:20:52;;;;;;;;;;;;;;;;;;5072509;28;19975;-61
2023/08/28 05:23:25;;;;;;;;;;;;;;;;;;5072751;28;20013;-61
2023/08/28 05:25:50;;;;;;;;;;;;;;;;;;5085049;28;20376;-61
2023/08/28 05:28:17;;;;;;;;;;;;;;;;;;5071361;28;19920;-61
2023/08/28 05:30:42;;;;;;;;;;;;;;;;;;5060091;28;19913;-60
2023/08/28 05:33:08;;;;;;;;;;;;;;;;;;5071149;28;19995;-61
2023/08/28 05:35:34;;;;;;;;;;;;;;;;;;5065096;28;20003;-60
2023/08/28 05:38:00;;;;;;;;;;;;;;;;;;5064927;28;19971;-61
2023/08/28 05:40:26;;;;;;;;;;;;;;;;;;5064693;28;19934;-57
2023/08/28 05:42:52;;;;;;;;;;;;;;;;;;5065514;28;20388;-57
2023/08/28 05:45:18;;;;;;;;;;;;;;;;;;5068838;28;19917;-59
2023/08/28 05:47:44;;;;;;;;;;;;;;;;;;5058640;28;20394;-58
2023/08/28 05:50:10;;;;;;;;;;;;;;;;;;5071236;28;19912;-62
2023/08/28 05:52:36;;;;;;;;;;;;;;;;;;5071734;28;19951;-58
2023/08/28 05:55:03;;;;;;;;;;;;;;;;;;5072607;28;19909;-58
2023/08/28 05:57:29;;;;;;;;;;;;;;;;;;5072634;28;19923;-57
2023/08/28 05:59:55;;;;;;;;;;;;;;;;;;5072395;28;19908;-57
2023/08/28 06:02:21;;;;;;;;;;;;;;;;;;5071818;28;19955;-58
2023/08/28 06:04:47;;;;;;;;;;;;;;;;;;5063792;28;19916;-57
2023/08/28 06:07:13;;;;;;;;;;;;;;;;;;5071388;28;20022;-57
2023/08/28 06:09:39;;;;;;;;;;;;;;;;;;5072250;28;19915;-57
2023/08/28 06:12:04;;;;;;;;;;;;;;;;;;5072205;28;20017;-58
2023/08/28 06:14:30;;;;;;;;;;;;;;;;;;5071418;28;19916;-59
2023/08/28 06:16:56;;;;;;;;;;;;;;;;;;5072342;28;19912;-57
2023/08/28 06:19:22;;;;;;;;;;;;;;;;;;5071744;28;20352;-57
2023/08/28 06:21:48;;;;;;;;;;;;;;;;;;5070262;28;19923;-57
2023/08/28 06:24:14;;;;;;;;;;;;;;;;;;5071941;28;20360;-57
2023/08/28 06:26:40;;;;;;;;;;;;;;;;;;5063383;28;20331;-56
2023/08/28 06:29:06;;;;;;;;;;;;;;;;;;5072364;28;19909;-58
2023/08/28 06:31:32;;;;;;;;;;;;;;;;;;5071446;28;19948;-58
2023/08/28 06:33:58;;;;;;;;;;;;;;;;;;5070761;28;20323;-57
2023/08/28 06:36:23;;;;;;;;;;;;;;;;;;5062004;28;19965;-57
2023/08/28 06:38:51;;;;;;;;;;;;;;;;;;5069790;28;19993;-57
2023/08/28 06:41:17;;;;;;;;;;;;;;;;;;5070536;28;20102;-55
2023/08/28 06:43:43;;;;;;;;;;;;;;;;;;5072112;28;20035;-57
2023/08/28 06:46:09;;;;;;;;;;;;;;;;;;5071677;28;19912;-58
2023/08/28 06:48:35;;;;;;;;;;;;;;;;;;5069802;28;20340;-56
2023/08/28 06:51:01;;;;;;;;;;;;;;;;;;5068397;28;20018;-61
2023/08/28 06:53:27;;;;;;;;;;;;;;;;;;5069472;28;19931;-59
2023/08/28 06:55:53;;;;;;;;;;;;;;;;;;5071706;28;19916;-60
2023/08/28 06:58:19;;;;;;;;;;;;;;;;;;5071859;28;19948;-60
2023/08/28 07:00:45;;;;;;;;;;;;;;;;;;5069298;28;19915;-60
2023/08/28 07:03:11;;;;;;;;;;;;;;;;;;5071724;28;19916;-60
2023/08/28 07:05:37;;;;;;;;;;;;;;;;;;5062012;28;19951;-60
2023/08/28 07:08:03;;;;;;;;;;;;;;;;;;5070382;28;20380;-61
2023/08/28 07:10:29;;;;;;;;;;;;;;;;;;5068563;28;19923;-59
2023/08/28 07:12:55;;;;;;;;;;;;;;;;;;5071624;28;19908;-60
2023/08/28 07:15:22;;;;;;;;;;;;;;;;;;5071288;28;19912;-60
2023/08/28 07:17:48;;;;;;;;;;;;;;;;;;5069218;28;20368;-60
2023/08/28 07:20:14;;;;;;;;;;;;;;;;;;5065123;28;19920;-61
2023/08/28 07:22:41;;;;;;;;;;;;;;;;;;5069873;28;21380;-60
2023/08/28 07:25:07;;;;;;;;;;;;;;;;;;5067769;28;19952;-60
2023/08/28 07:27:33;;;;;;;;;;;;;;;;;;5071489;28;19991;-60
2023/08/28 07:29:59;;;;;;;;;;;;;;;;;;5070821;28;20015;-60
2023/08/28 07:32:25;;;;;;;;;;;;;;;;;;5065003;28;20090;-60
2023/08/28 07:34:51;;;;;;;;;;;;;;;;;;5070318;28;19921;-60
2023/08/28 07:37:17;;;;;;;;;;;;;;;;;;5058392;28;19920;-60
2023/08/28 07:39:43;;;;;;;;;;;;;;;;;;5071053;28;19952;-60
2023/08/28 07:42:09;;;;;;;;;;;;;;;;;;5071418;28;19920;-60
2023/08/28 07:44:35;;;;;;;;;;;;;;;;;;5070993;28;20277;-60
2023/08/28 07:47:02;;;;;;;;;;;;;;;;;;5068139;28;19959;-60
2023/08/28 07:49:28;;;;;;;;;;;;;;;;;;5067384;28;19919;-60
2023/08/28 07:51:53;;;;;;;;;;;;;;;;;;5071013;28;19908;-60
2023/08/28 07:54:19;;;;;;;;;;;;;;;;;;5071042;28;20344;-61
2023/08/28 07:56:45;;;;;;;;;;;;;;;;;;5071321;28;19909;-60
2023/08/28 07:59:11;;;;;;;;;;;;;;;;;;5070875;28;19919;-62
2023/08/28 08:01:37;;;;;;;;;;;;;;;;;;5070927;28;19912;-61
2023/08/28 08:04:03;;;;;;;;;;;;;;;;;;5060448;28;19917;-62
2023/08/28 08:06:29;;;;;;;;;;;;;;;;;;5054311;28;19983;-62
2023/08/28 08:08:55;;;;;;;;;;;;;;;;;;5066533;28;19995;-62
2023/08/28 08:11:22;;;;;;;;;;;;;;;;;;5070474;28;19908;-62
2023/08/28 08:13:48;;;;;;;;;;;;;;;;;;5074305;28;19913;-61
2023/08/28 08:16:14;;;;;;;;;;;;;;;;;;5074784;28;20047;-61
2023/08/28 08:18:40;;;;;;;;;;;;;;;;;;5074656;28;19913;-61
2023/08/28 08:21:05;;;;;;;;;;;;;;;;;;5072450;28;19986;-61
2023/08/28 08:23:31;;;;;;;;;;;;;;;;;;5074223;28;19912;-62
2023/08/28 08:25:58;;;;;;;;;;;;;;;;;;5074579;28;19915;-61
2023/08/28 08:28:24;;;;;;;;;;;;;;;;;;5074337;28;19924;-61
2023/08/28 08:30:50;;;;;;;;;;;;;;;;;;5074815;28;19995;-62
2023/08/28 08:33:17;;;;;;;;;;;;;;;;;;5074461;28;19909;-61
2023/08/28 08:35:43;;;;;;;;;;;;;;;;;;5063239;28;20305;-62
2023/08/28 08:38:09;;;;;;;;;;;;;;;;;;5074181;28;19909;-62
2023/08/28 08:40:36;;;;;;;;;;;;;;;;;;5073685;28;19952;-61
2023/08/28 08:43:02;;;;;;;;;;;;;;;;;;5072225;28;19913;-61
2023/08/28 08:45:28;;;;;;;;;;;;;;;;;;5062212;28;19943;-61
2023/08/28 08:47:54;;;;;;;;;;;;;;;;;;5074103;28;19970;-62
2023/08/28 08:50:20;;;;;;;;;;;;;;;;;;5073779;28;19912;-61
2023/08/28 08:52:46;;;;;;;;;;;;;;;;;;5074115;28;20471;-61
2023/08/28 08:55:12;;;;;;;;;;;;;;;;;;5073614;28;20021;-61
2023/08/28 08:57:38;;;;;;;;;;;;;;;;;;5074133;28;19919;-62
2023/08/28 09:00:17;;;;;;;;;;;;;;;;;;5073718;28;20331;-62
2023/08/28 09:02:43;;;;;;;;;;;;;;;;;;5062328;28;19920;-61
2023/08/28 09:05:09;;;;;;;;;;;;;;;;;;5066416;28;19921;-61
2023/08/28 09:07:37;;;;;;;;;;;;;;;;;;5073258;28;19916;-61
2023/08/28 09:10:03;;;;;;;;;;;;;;;;;;5073840;28;20364;-57
2023/08/28 09:12:29;;;;;;;;;;;;;;;;;;5073923;28;20046;-57
2023/08/28 09:14:55;;;;;;;;;;;;;;;;;;5073778;28;19954;-58
2023/08/28 09:17:21;;;;;;;;;;;;;;;;;;5073786;28;19995;-57
2023/08/28 09:19:47;;;;;;;;;;;;;;;;;;5073294;28;19924;-58
2023/08/28 09:22:13;;;;;;;;;;;;;;;;;;5073642;28;19961;-58
2023/08/28 09:24:39;;;;;;;;;;;;;;;;;;5071733;28;19960;-57
2023/08/28 09:27:05;;;;;;;;;;;;;;;;;;5064194;28;20342;-59
2023/08/28 09:29:31;;;;;;;;;;;;;;;;;;5068718;28;19908;-58
2023/08/28 09:31:57;;;;;;;;;;;;;;;;;;5063486;28;20000;-58
2023/08/28 09:34:22;;;;;;;;;;;;;;;;;;5064594;28;20328;-57
2023/08/28 09:36:48;;;;;;;;;;;;;;;;;;5073358;28;19913;-58
2023/08/28 09:39:14;;;;;;;;;;;;;;;;;;5073187;28;19994;-58
2023/08/28 09:41:40;;;;;;;;;;;;;;;;;;5071147;28;20279;-58
2023/08/28 09:44:06;;;;;;;;;;;;;;;;;;5073214;28;19948;-59
2023/08/28 09:46:32;;;;;;;;;;;;;;;;;;5073318;28;19908;-57
2023/08/28 09:48:58;;;;;;;;;;;;;;;;;;5073059;28;20280;-58
2023/08/28 09:51:24;;;;;;;;;;;;;;;;;;5072767;28;20283;-58
2023/08/28 09:53:50;;;;;;;;;;;;;;;;;;5072753;28;19916;-58
2023/08/28 09:56:16;;;;;;;;;;;;;;;;;;5071700;28;20062;-58
2023/08/28 09:58:41;;;;;;;;;;;;;;;;;;5072893;28;19908;-58
2023/08/28 10:01:07;;;;;;;;;;;;;;;;;;5072053;28;19926;-57
2023/08/28 10:03:33;;;;;;;;;;;;;;;;;;5071638;28;20426;-57
2023/08/28 10:05:59;;;;;;;;;;;;;;;;;;5072421;28;19931;-57
2023/08/28 10:08:25;;;;;;;;;;;;;;;;;;5072554;28;19948;-58
2023/08/28 10:10:51;;;;;;;;;;;;;;;;;;5071253;28;19916;-57
2023/08/28 10:13:17;;;;;;;;;;;;;;;;;;5070696;28;20007;-57
2023/08/28 10:15:43;;;;;;;;;;;;;;;;;;5072758;28;19908;-58
2023/08/28 10:18:09;;;;;;;;;;;;;;;;;;5071869;28;19916;-57
2023/08/28 10:20:34;;;;;;;;;;;;;;;;;;5071847;28;20463;-61
2023/08/28 10:23:00;;;;;;;;;;;;;;;;;;5067430;28;20022;-61
2023/08/28 10:25:27;;;;;;;;;;;;;;;;;;5060386;28;19912;-61
2023/08/28 10:27:53;;;;;;;;;;;;;;;;;;5072432;28;19988;-61
2023/08/28 10:30:21;;;;;;;;;;;;;;;;;;5066736;28;20429;-61
2023/08/28 10:32:47;;;;;;;;;;;;;;;;;;5061995;28;19912;-61
2023/08/28 10:35:13;;;;;;;;;;;;;;;;;;5066205;28;23912;-62
2023/08/28 10:37:39;;;;;;;;;;;;;;;;;;5066386;28;20012;-61
2023/08/28 10:40:04;;;;;;;;;;;;;;;;;;5061775;28;19924;-62
2023/08/28 10:42:30;;;;;;;;;;;;;;;;;;5064968;28;20406;-62
2023/08/28 10:44:56;;;;;;;;;;;;;;;;;;5060619;28;19921;-61
2023/08/28 10:47:22;;;;;;;;;;;;;;;;;;5060229;28;19917;-61
2023/08/28 10:49:48;;;;;;;;;;;;;;;;;;5066094;28;20252;-62
2023/08/28 10:52:14;;;;;;;;;;;;;;;;;;5070114;28;19919;-62
2023/08/28 10:54:40;;;;;;;;;;;;;;;;;;5067952;28;19999;-61
2023/08/28 10:57:10;;;;;;;;;;;;;;;;;;5064820;28;20680;-62
2023/08/28 10:59:36;;;;;;;;;;;;;;;;;;5069390;28;20399;-62
2023/08/28 11:02:02;;;;;;;;;;;;;;;;;;5058789;28;20016;-62
2023/08/28 11:04:27;;;;;;;;;;;;;;;;;;5066822;28;19917;-62
2023/08/28 11:06:53;;;;;;;;;;;;;;;;;;5062425;28;19964;-62
2023/08/28 11:09:19;;;;;;;;;;;;;;;;;;5067749;28;19912;-62
2023/08/28 11:11:45;;;;;;;;;;;;;;;;;;5061138;28;20376;-61
2023/08/28 11:14:11;;;;;;;;;;;;;;;;;;5066580;28;20007;-62
2023/08/28 11:16:37;;;;;;;;;;;;;;;;;;5071535;28;19919;-62
2023/08/28 11:19:03;;;;;;;;;;;;;;;;;;5067869;28;19917;-62
2023/08/28 11:21:29;;;;;;;;;;;;;;;;;;5071340;28;19925;-62
2023/08/28 11:23:55;;;;;;;;;;;;;;;;;;5060091;28;20329;-62
2023/08/28 11:26:20;;;;;;;;;;;;;;;;;;5063873;28;20008;-62
2023/08/28 11:28:46;;;;;;;;;;;;;;;;;;5058697;28;19921;-66
2023/08/28 11:31:12;;;;;;;;;;;;;;;;;;5056808;28;19960;-67
2023/08/28 11:33:39;;;;;;;;;;;;;;;;;;5057162;28;19961;-66
2023/08/28 11:36:04;;;;;;;;;;;;;;;;;;5066954;28;19920;-67
2023/08/28 11:38:31;;;;;;;;;;;;;;;;;;5061851;28;20357;-67
2023/08/28 11:40:57;;;;;;;;;;;;;;;;;;5066430;28;20253;-66
2023/08/28 11:43:22;;;;;;;;;;;;;;;;;;5068674;28;19962;-66
2023/08/28 11:45:48;;;;;;;;;;;;;;;;;;5058819;28;19913;-66
2023/08/28 11:48:14;;;;;;;;;;;;;;;;;;5070115;28;20640;-66
2023/08/28 11:50:40;;;;;;;;;;;;;;;;;;5066573;28;20099;-67
2023/08/28 11:53:06;;;;;;;;;;;;;;;;;;5073828;28;19912;-67
2023/08/28 11:55:33;;;;;;;;;;;;;;;;;;5075186;28;19908;-65
2023/08/28 11:57:59;;;;;;;;;;;;;;;;;;5075107;28;19921;-67
2023/08/28 12:00:25;;;;;;;;;;;;;;;;;;5071446;28;20397;-67
2023/08/28 12:02:51;;;;;;;;;;;;;;;;;;5071319;28;19920;-66
2023/08/28 12:05:17;;;;;;;;;;;;;;;;;;5063697;28;19976;-66
2023/08/28 12:07:43;;;;;;;;;;;;;;;;;;5070597;28;19938;-65
2023/08/28 12:10:09;;;;;;;;;;;;;;;;;;5064953;28;20645;-67
2023/08/28 12:12:35;;;;;;;;;;;;;;;;;;5067884;28;19938;-67
2023/08/28 12:15:01;;;;;;;;;;;;;;;;;;5074761;28;20351;-67
2023/08/28 12:17:27;;;;;;;;;;;;;;;;;;5057995;28;19999;-67
2023/08/28 12:19:53;;;;;;;;;;;;;;;;;;5068406;28;20291;-66
2023/08/28 12:22:22;;;;;;;;;;;;;;;;;;5065450;28;19919;-67
2023/08/28 12:24:48;;;;;;;;;;;;;;;;;;5068022;28;19959;-66
2023/08/28 12:27:14;;;;;;;;;;;;;;;;;;5067585;28;20358;-66
2023/08/28 12:29:41;;;;;;;;;;;;;;;;;;5066633;28;20242;-65
2023/08/28 12:32:07;;;;;;;;;;;;;;;;;;5069448;28;20303;-61
2023/08/28 12:34:33;;;;;;;;;;;;;;;;;;5068523;28;20007;-67
2023/08/28 12:36:58;;;;;;;;;;;;;;;;;;5067872;28;19917;-65
2023/08/28 12:39:24;;;;;;;;;;;;;;;;;;5066380;28;19948;-65
2023/08/28 12:41:50;;;;;;;;;;;;;;;;;;5055416;28;20279;-66
2023/08/28 12:44:16;;;;;;;;;;;;;;;;;;5062580;28;19924;-65
2023/08/28 12:46:42;;;;;;;;;;;;;;;;;;5069182;28;19939;-66
2023/08/28 12:49:08;;;;;;;;;;;;;;;;;;5069521;28;19952;-66
2023/08/28 12:51:34;;;;;;;;;;;;;;;;;;5059106;28;19912;-66
2023/08/28 12:54:00;;;;;;;;;;;;;;;;;;5066756;28;19923;-65
2023/08/28 12:56:26;;;;;;;;;;;;;;;;;;5064753;28;19952;-66
2023/08/28 12:58:52;;;;;;;;;;;;;;;;;;5070704;28;19971;-66
2023/08/28 13:01:18;;;;;;;;;;;;;;;;;;5071143;28;19935;-67
2023/08/28 13:03:44;;;;;;;;;;;;;;;;;;5064388;28;19918;-66
2023/08/28 13:06:10;;;;;;;;;;;;;;;;;;5055412;28;19917;-67
2023/08/28 13:08:36;;;;;;;;;;;;;;;;;;5059084;28;19963;-66
2023/08/28 13:11:02;;;;;;;;;;;;;;;;;;5071543;28;20282;-66
2023/08/28 13:13:27;;;;;;;;;;;;;;;;;;5066967;28;20003;-67
2023/08/28 13:15:53;;;;;;;;;;;;;;;;;;5066865;28;19932;-67
2023/08/28 13:18:19;;;;;;;;;;;;;;;;;;5055146;28;20403;-66
2023/08/28 13:20:45;;;;;;;;;;;;;;;;;;5058454;28;19924;-66
2023/08/28 13:23:11;;;;;;;;;;;;;;;;;;5061749;28;21059;-65
2023/08/28 13:25:37;;;;;;;;;;;;;;;;;;5065123;28;20428;-66
2023/08/28 13:28:03;;;;;;;;;;;;;;;;;;5068552;28;19969;-66
2023/08/28 13:30:29;;;;;;;;;;;;;;;;;;5071051;28;20022;-62
2023/08/28 13:32:56;;;;;;;;;;;;;;;;;;5064831;28;24015;-65
2023/08/28 13:35:22;;;;;;;;;;;;;;;;;;5058078;28;19913;-67
2023/08/28 13:37:48;;;;;;;;;;;;;;;;;;5064000;28;19962;-64
2023/08/28 13:40:14;;;;;;;;;;;;;;;;;;5060385;28;19919;-67
2023/08/28 13:42:40;;;;;;;;;;;;;;;;;;5057868;28;20815;-65
2023/08/28 13:45:06;;;;;;;;;;;;;;;;;;5069906;28;19923;-67
2023/08/28 13:47:31;;;;;;;;;;;;;;;;;;5065827;28;19952;-67
2023/08/28 13:49:58;;;;;;;;;;;;;;;;;;5065429;28;19913;-57
2023/08/28 13:52:23;;;;;;;;;;;;;;;;;;5058488;28;19966;-59
2023/08/28 13:54:49;;;;;;;;;;;;;;;;;;5064458;28;19955;-57
2023/08/28 13:57:15;;;;;;;;;;;;;;;;;;5061711;28;20330;-58
2023/08/28 13:59:41;;;;;;;;;;;;;;;;;;5064787;28;20430;-58
2023/08/28 14:02:07;;;;;;;;;;;;;;;;;;5073344;28;19908;-58
2023/08/28 14:04:33;;;;;;;;;;;;;;;;;;5067209;28;20264;-57
2023/08/28 14:06:59;;;;;;;;;;;;;;;;;;5066502;28;19919;-58
2023/08/28 14:09:25;;;;;;;;;;;;;;;;;;5059231;28;19952;-58
2023/08/28 14:11:51;;;;;;;;;;;;;;;;;;5066250;28;20343;-58
2023/08/28 14:14:16;;;;;;;;;;;;;;;;;;5063511;28;19951;-59
2023/08/28 14:16:42;;;;;;;;;;;;;;;;;;5064229;28;20045;-58
2023/08/28 14:19:08;;;;;;;;;;;;;;;;;;5064503;28;19913;-59
2023/08/28 14:21:34;;;;;;;;;;;;;;;;;;5053395;28;19995;-58
2023/08/28 14:24:00;;;;;;;;;;;;;;;;;;5078459;28;19974;-57
2023/08/28 14:26:26;;;;;;;;;;;;;;;;;;5069830;28;19971;-58
2023/08/28 14:28:52;;;;;;;;;;;;;;;;;;5066194;28;19965;-57
2023/08/28 14:31:18;;;;;;;;;;;;;;;;;;5071367;28;19948;-57
2023/08/28 14:33:45;;;;;;;;;;;;;;;;;;5057282;28;20387;-58
2023/08/28 14:36:11;;;;;;;;;;;;;;;;;;5062705;28;19916;-58
2023/08/28 14:38:37;;;;;;;;;;;;;;;;;;5060387;28;20253;-59
2023/08/28 14:41:03;;;;;;;;;;;;;;;;;;5055007;28;19959;-58
2023/08/28 14:43:29;;;;;;;;;;;;;;;;;;5062840;28;19925;-58
2023/08/28 14:45:55;;;;;;;;;;;;;;;;;;5058405;28;19995;-58
2023/08/28 14:48:21;;;;;;;;;;;;;;;;;;5062684;28;19925;-58
2023/08/28 14:50:46;;;;;;;;;;;;;;;;;;5061449;28;19924;-57
2023/08/28 14:53:12;;;;;;;;;;;;;;;;;;5066208;28;19956;-58
2023/08/28 14:55:38;;;;;;;;;;;;;;;;;;5063262;28;19963;-57
2023/08/28 14:58:04;;;;;;;;;;;;;;;;;;5068174;28;19951;-59
2023/08/28 15:00:32;;;;;;;;;;;;;;;;;;5057492;28;20015;-59
2023/08/28 15:02:58;;;;;;;;;;;;;;;;;;5058741;28;20110;-58
2023/08/28 15:05:24;;;;;;;;;;;;;;;;;;5070060;28;19912;-58
2023/08/28 15:07:50;;;;;;;;;;;;;;;;;;5057398;28;20618;-57
2023/08/28 15:10:16;;;;;;;;;;;;;;;;;;5065370;28;19916;-57
2023/08/28 15:12:42;;;;;;;;;;;;;;;;;;5059548;28;19942;-59
2023/08/28 15:15:08;;;;;;;;;;;;;;;;;;5059820;28;20058;-57
2023/08/28 15:17:34;;;;;;;;;;;;;;;;;;5061191;28;19952;-58
2023/08/28 15:20:00;;;;;;;;;;;;;;;;;;5053646;28;20031;-59
2023/08/28 15:22:26;;;;;;;;;;;;;;;;;;5065986;28;19947;-58
2023/08/28 15:24:52;;;;;;;;;;;;;;;;;;5059632;28;20388;-59
2023/08/28 15:27:17;;;;;;;;;;;;;;;;;;5061875;28;19982;-57
2023/08/28 15:29:43;;;;;;;;;;;;;;;;;;5067558;28;19912;-59
2023/08/28 15:32:09;;;;;;;;;;;;;;;;;;5061541;28;19951;-59
2023/08/28 15:34:35;;;;;;;;;;;;;;;;;;5053631;28;19985;-58
2023/08/28 15:37:02;;;;;;;;;;;;;;;;;;5064220;28;19957;-58
2023/08/28 15:39:28;;;;;;;;;;;;;;;;;;5066947;28;19958;-58
2023/08/28 15:41:54;;;;;;;;;;;;;;;;;;5063631;28;20313;-58
2023/08/28 15:44:20;;;;;;;;;;;;;;;;;;5052465;28;19924;-58
2023/08/28 15:46:46;;;;;;;;;;;;;;;;;;5062821;28;19963;-61
2023/08/28 15:49:12;;;;;;;;;;;;;;;;;;5055157;28;20015;-58
2023/08/28 15:51:38;;;;;;;;;;;;;;;;;;5059793;28;19924;-60
2023/08/28 15:54:04;;;;;;;;;;;;;;;;;;5058331;28;19955;-57
2023/08/28 15:56:30;;;;;;;;;;;;;;;;;;5054154;28;20419;-59
2023/08/28 15:58:56;;;;;;;;;;;;;;;;;;5056109;28;19913;-57
2023/08/28 16:01:22;;;;;;;;;;;;;;;;;;5061682;28;20039;-57
2023/08/28 16:03:48;;;;;;;;;;;;;;;;;;5062226;28;20442;-56
2023/08/28 16:06:14;;;;;;;;;;;;;;;;;;5053364;28;19920;-58
2023/08/28 16:08:40;;;;;;;;;;;;;;;;;;5063063;28;20051;-60
2023/08/28 16:11:06;;;;;;;;;;;;;;;;;;5059564;28;20007;-66
2023/08/28 16:13:32;;;;;;;;;;;;;;;;;;5056817;28;19994;-65
2023/08/28 16:15:58;;;;;;;;;;;;;;;;;;5060100;28;20365;-65
2023/08/28 16:18:24;;;;;;;;;;;;;;;;;;5061622;28;19992;-66
2023/08/28 16:20:49;;;;;;;;;;;;;;;;;;5063247;28;19956;-66
2023/08/28 16:23:15;;;;;;;;;;;;;;;;;;5068313;28;20382;-66
2023/08/28 16:25:41;;;;;;;;;;;;;;;;;;5064960;28;20008;-67
2023/08/28 16:28:07;;;;;;;;;;;;;;;;;;5062243;28;19912;-66
2023/08/28 16:30:33;;;;;;;;;;;;;;;;;;5055619;28;20015;-65
2023/08/28 16:32:59;;;;;;;;;;;;;;;;;;5067303;28;20336;-66
2023/08/28 16:35:25;;;;;;;;;;;;;;;;;;5072847;28;20008;-65
2023/08/28 16:37:51;;;;;;;;;;;;;;;;;;5069718;28;19956;-66